sensor_id;sensor_type;location;lat;lon;timestamp;P1;durP1;ratioP1;P2;durP2;ratioP2
815;SDS011;25928;51.062;13.752;2023-02-14T00:00:32;24.90;;;17.60;;
815;SDS011;25928;51.062;13.752;2023-02-14T00:02:57;26.70;;;19.43;;
815;SDS011;25928;51.062;13.752;2023-02-14T00:05:23;24.50;;;18.17;;
815;SDS011;25928;51.062;13.752;2023-02-14T00:07:49;25.73;;;18.10;;
815;SDS011;25928;51.062;13.752;2023-02-14T00:10:14;27.70;;;19.30;;
815;SDS011;25928;51.062;13.752;2023-02-14T00:12:40;30.10;;;20.60;;
815;SDS011;25928;51.062;13.752;2023-02-14T00:15:06;27.37;;;19.50;;
815;SDS011;25928;51.062;13.752;2023-02-14T00:17:47;29.07;;;19.03;;
815;SDS011;25928;51.062;13.752;2023-02-14T00:20:18;24.43;;;17.80;;
815;SDS011;25928;51.062;13.752;2023-02-14T00:22:45;25.83;;;19.33;;
815;SDS011;25928;51.062;13.752;2023-02-14T00:25:10;31.50;;;21.67;;
815;SDS011;25928;51.062;13.752;2023-02-14T00:27:36;28.10;;;19.50;;
815;SDS011;25928;51.062;13.752;2023-02-14T00:30:02;27.50;;;18.37;;
815;SDS011;25928;51.062;13.752;2023-02-14T00:32:28;27.07;;;19.00;;
815;SDS011;25928;51.062;13.752;2023-02-14T00:34:54;27.20;;;19.73;;
815;SDS011;25928;51.062;13.752;2023-02-14T00:37:20;27.90;;;18.97;;
815;SDS011;25928;51.062;13.752;2023-02-14T00:39:46;26.20;;;18.80;;
815;SDS011;25928;51.062;13.752;2023-02-14T00:42:12;27.50;;;18.40;;
815;SDS011;25928;51.062;13.752;2023-02-14T00:44:38;26.13;;;17.80;;
815;SDS011;25928;51.062;13.752;2023-02-14T00:47:04;25.57;;;18.10;;
815;SDS011;25928;51.062;13.752;2023-02-14T00:49:30;23.47;;;17.57;;
815;SDS011;25928;51.062;13.752;2023-02-14T00:51:56;27.73;;;18.57;;
815;SDS011;25928;51.062;13.752;2023-02-14T00:54:21;27.53;;;17.70;;
815;SDS011;25928;51.062;13.752;2023-02-14T00:56:47;22.90;;;17.90;;
815;SDS011;25928;51.062;13.752;2023-02-14T00:59:12;25.63;;;17.60;;
815;SDS011;25928;51.062;13.752;2023-02-14T01:01:38;26.47;;;18.83;;
815;SDS011;25928;51.062;13.752;2023-02-14T01:04:04;22.17;;;15.63;;
815;SDS011;25928;51.062;13.752;2023-02-14T01:06:30;20.53;;;15.67;;
815;SDS011;25928;51.062;13.752;2023-02-14T01:08:55;22.40;;;15.57;;
815;SDS011;25928;51.062;13.752;2023-02-14T01:11:22;23.70;;;16.87;;
815;SDS011;25928;51.062;13.752;2023-02-14T01:13:48;22.93;;;15.40;;
815;SDS011;25928;51.062;13.752;2023-02-14T01:16:20;22.83;;;15.20;;
815;SDS011;25928;51.062;13.752;2023-02-14T01:18:47;22.63;;;16.50;;
815;SDS011;25928;51.062;13.752;2023-02-14T01:21:20;23.20;;;16.80;;
815;SDS011;25928;51.062;13.752;2023-02-14T01:23:49;22.43;;;15.80;;
815;SDS011;25928;51.062;13.752;2023-02-14T01:26:16;27.53;;;17.20;;
815;SDS011;25928;51.062;13.752;2023-02-14T01:28:42;22.37;;;15.73;;
815;SDS011;25928;51.062;13.752;2023-02-14T01:31:12;23.20;;;18.00;;
815;SDS011;25928;51.062;13.752;2023-02-14T01:33:40;23.20;;;16.50;;
815;SDS011;25928;51.062;13.752;2023-02-14T01:36:13;22.23;;;15.40;;
815;SDS011;25928;51.062;13.752;2023-02-14T01:38:51;25.47;;;16.97;;
815;SDS011;25928;51.062;13.752;2023-02-14T01:41:18;25.77;;;17.90;;
815;SDS011;25928;51.062;13.752;2023-02-14T01:43:57;22.90;;;16.13;;
815;SDS011;25928;51.062;13.752;2023-02-14T01:46:32;26.37;;;18.53;;
815;SDS011;25928;51.062;13.752;2023-02-14T01:49:04;20.50;;;16.07;;
815;SDS011;25928;51.062;13.752;2023-02-14T01:54:32;24.30;;;16.13;;
815;SDS011;25928;51.062;13.752;2023-02-14T01:57:01;23.60;;;16.07;;
815;SDS011;25928;51.062;13.752;2023-02-14T01:59:33;27.27;;;18.60;;
815;SDS011;25928;51.062;13.752;2023-02-14T02:02:04;25.50;;;17.00;;
815;SDS011;25928;51.062;13.752;2023-02-14T02:04:32;23.07;;;16.67;;
815;SDS011;25928;51.062;13.752;2023-02-14T02:07:02;27.50;;;17.73;;
815;SDS011;25928;51.062;13.752;2023-02-14T02:09:32;23.73;;;16.57;;
815;SDS011;25928;51.062;13.752;2023-02-14T02:11:59;24.10;;;16.50;;
815;SDS011;25928;51.062;13.752;2023-02-14T02:14:25;24.13;;;17.43;;
815;SDS011;25928;51.062;13.752;2023-02-14T02:17:01;24.27;;;17.47;;
815;SDS011;25928;51.062;13.752;2023-02-14T02:36:18;30.10;;;18.07;;
815;SDS011;25928;51.062;13.752;2023-02-14T02:39:03;26.43;;;18.27;;
815;SDS011;25928;51.062;13.752;2023-02-14T02:41:42;23.60;;;17.20;;
815;SDS011;25928;51.062;13.752;2023-02-14T02:44:20;24.37;;;16.97;;
815;SDS011;25928;51.062;13.752;2023-02-14T03:01:30;24.40;;;16.97;;
815;SDS011;25928;51.062;13.752;2023-02-14T03:03:59;26.70;;;17.20;;
815;SDS011;25928;51.062;13.752;2023-02-14T03:06:49;24.13;;;16.13;;
815;SDS011;25928;51.062;13.752;2023-02-14T03:17:47;22.57;;;16.70;;
815;SDS011;25928;51.062;13.752;2023-02-14T03:20:45;27.17;;;17.80;;
815;SDS011;25928;51.062;13.752;2023-02-14T03:23:26;24.00;;;16.60;;
815;SDS011;25928;51.062;13.752;2023-02-14T03:28:45;23.30;;;15.50;;
815;SDS011;25928;51.062;13.752;2023-02-14T03:31:31;22.20;;;16.33;;
815;SDS011;25928;51.062;13.752;2023-02-14T03:34:13;22.40;;;16.57;;
815;SDS011;25928;51.062;13.752;2023-02-14T03:37:10;25.43;;;15.77;;
815;SDS011;25928;51.062;13.752;2023-02-14T03:42:47;22.67;;;16.30;;
815;SDS011;25928;51.062;13.752;2023-02-14T03:45:36;20.60;;;15.60;;
815;SDS011;25928;51.062;13.752;2023-02-14T03:48:15;24.73;;;17.20;;
815;SDS011;25928;51.062;13.752;2023-02-14T03:50:45;25.47;;;17.50;;
815;SDS011;25928;51.062;13.752;2023-02-14T03:53:13;25.13;;;15.33;;
815;SDS011;25928;51.062;13.752;2023-02-14T03:55:45;24.30;;;16.03;;
815;SDS011;25928;51.062;13.752;2023-02-14T03:58:20;25.20;;;17.00;;
815;SDS011;25928;51.062;13.752;2023-02-14T04:00:51;21.37;;;16.50;;
815;SDS011;25928;51.062;13.752;2023-02-14T04:03:22;23.60;;;16.10;;
815;SDS011;25928;51.062;13.752;2023-02-14T04:05:51;28.57;;;18.03;;
815;SDS011;25928;51.062;13.752;2023-02-14T04:08:21;18.23;;;14.57;;
815;SDS011;25928;51.062;13.752;2023-02-14T04:10:53;25.73;;;16.87;;
815;SDS011;25928;51.062;13.752;2023-02-14T04:13:22;29.20;;;15.97;;
815;SDS011;25928;51.062;13.752;2023-02-14T04:15:47;22.60;;;15.30;;
815;SDS011;25928;51.062;13.752;2023-02-14T04:18:13;20.10;;;15.30;;
815;SDS011;25928;51.062;13.752;2023-02-14T04:20:57;23.97;;;16.43;;
815;SDS011;25928;51.062;13.752;2023-02-14T04:23:24;24.33;;;17.23;;
815;SDS011;25928;51.062;13.752;2023-02-14T04:25:49;24.23;;;17.37;;
815;SDS011;25928;51.062;13.752;2023-02-14T04:28:15;25.33;;;16.43;;
815;SDS011;25928;51.062;13.752;2023-02-14T04:30:41;26.83;;;17.30;;
815;SDS011;25928;51.062;13.752;2023-02-14T04:33:06;24.40;;;17.07;;
815;SDS011;25928;51.062;13.752;2023-02-14T04:35:32;22.13;;;16.97;;
815;SDS011;25928;51.062;13.752;2023-02-14T04:37:59;24.83;;;15.90;;
815;SDS011;25928;51.062;13.752;2023-02-14T04:40:26;25.40;;;16.37;;
815;SDS011;25928;51.062;13.752;2023-02-14T04:42:52;22.60;;;15.80;;
815;SDS011;25928;51.062;13.752;2023-02-14T04:45:18;21.43;;;16.83;;
815;SDS011;25928;51.062;13.752;2023-02-14T04:47:44;23.13;;;15.90;;
815;SDS011;25928;51.062;13.752;2023-02-14T04:50:09;16.00;;;11.90;;
815;SDS011;25928;51.062;13.752;2023-02-14T04:52:36;15.70;;;12.73;;
815;SDS011;25928;51.062;13.752;2023-02-14T04:55:01;20.93;;;15.53;;
815;SDS011;25928;51.062;13.752;2023-02-14T04:57:28;21.07;;;14.43;;
815;SDS011;25928;51.062;13.752;2023-02-14T04:59:54;20.70;;;15.60;;
815;SDS011;25928;51.062;13.752;2023-02-14T05:02:20;23.83;;;16.80;;
815;SDS011;25928;51.062;13.752;2023-02-14T05:04:45;23.53;;;16.60;;
815;SDS011;25928;51.062;13.752;2023-02-14T05:07:11;24.53;;;16.90;;
815;SDS011;25928;51.062;13.752;2023-02-14T05:09:37;22.03;;;16.83;;
815;SDS011;25928;51.062;13.752;2023-02-14T05:12:02;25.00;;;17.03;;
815;SDS011;25928;51.062;13.752;2023-02-14T05:14:28;26.83;;;15.60;;
815;SDS011;25928;51.062;13.752;2023-02-14T05:16:54;25.23;;;16.70;;
815;SDS011;25928;51.062;13.752;2023-02-14T05:19:19;24.10;;;16.20;;
815;SDS011;25928;51.062;13.752;2023-02-14T05:21:45;23.17;;;16.80;;
815;SDS011;25928;51.062;13.752;2023-02-14T05:24:11;22.97;;;16.17;;
815;SDS011;25928;51.062;13.752;2023-02-14T05:26:36;22.33;;;16.13;;
815;SDS011;25928;51.062;13.752;2023-02-14T05:29:02;22.30;;;16.80;;
815;SDS011;25928;51.062;13.752;2023-02-14T05:31:28;30.27;;;15.80;;
815;SDS011;25928;51.062;13.752;2023-02-14T05:33:53;25.50;;;16.07;;
815;SDS011;25928;51.062;13.752;2023-02-14T05:36:19;23.47;;;15.77;;
815;SDS011;25928;51.062;13.752;2023-02-14T05:38:45;24.60;;;15.93;;
815;SDS011;25928;51.062;13.752;2023-02-14T05:41:11;22.37;;;15.23;;
815;SDS011;25928;51.062;13.752;2023-02-14T05:43:36;19.30;;;14.83;;
815;SDS011;25928;51.062;13.752;2023-02-14T05:46:02;22.23;;;15.83;;
815;SDS011;25928;51.062;13.752;2023-02-14T05:48:28;20.50;;;15.00;;
815;SDS011;25928;51.062;13.752;2023-02-14T05:50:54;20.40;;;14.53;;
815;SDS011;25928;51.062;13.752;2023-02-14T05:53:19;20.80;;;14.50;;
815;SDS011;25928;51.062;13.752;2023-02-14T05:55:45;21.53;;;15.83;;
815;SDS011;25928;51.062;13.752;2023-02-14T05:58:11;21.00;;;14.23;;
815;SDS011;25928;51.062;13.752;2023-02-14T06:00:37;14.63;;;12.33;;
815;SDS011;25928;51.062;13.752;2023-02-14T06:03:03;11.00;;;9.80;;
815;SDS011;25928;51.062;13.752;2023-02-14T06:05:28;15.00;;;12.07;;
815;SDS011;25928;51.062;13.752;2023-02-14T06:07:54;21.47;;;15.47;;
815;SDS011;25928;51.062;13.752;2023-02-14T06:10:20;16.33;;;13.27;;
815;SDS011;25928;51.062;13.752;2023-02-14T06:12:48;18.93;;;14.20;;
815;SDS011;25928;51.062;13.752;2023-02-14T06:15:15;13.87;;;11.90;;
815;SDS011;25928;51.062;13.752;2023-02-14T06:17:41;15.90;;;13.00;;
815;SDS011;25928;51.062;13.752;2023-02-14T06:20:07;20.43;;;13.77;;
815;SDS011;25928;51.062;13.752;2023-02-14T06:22:36;23.10;;;14.00;;
815;SDS011;25928;51.062;13.752;2023-02-14T06:25:03;19.93;;;15.30;;
815;SDS011;25928;51.062;13.752;2023-02-14T06:27:30;18.53;;;13.70;;
815;SDS011;25928;51.062;13.752;2023-02-14T06:29:56;15.80;;;13.20;;
815;SDS011;25928;51.062;13.752;2023-02-14T06:32:22;20.50;;;14.93;;
815;SDS011;25928;51.062;13.752;2023-02-14T06:34:47;16.37;;;13.20;;
815;SDS011;25928;51.062;13.752;2023-02-14T06:37:13;20.73;;;16.70;;
815;SDS011;25928;51.062;13.752;2023-02-14T06:39:38;20.37;;;15.33;;
815;SDS011;25928;51.062;13.752;2023-02-14T06:42:04;20.00;;;16.27;;
815;SDS011;25928;51.062;13.752;2023-02-14T06:44:30;19.07;;;15.23;;
815;SDS011;25928;51.062;13.752;2023-02-14T06:46:55;16.00;;;12.27;;
815;SDS011;25928;51.062;13.752;2023-02-14T06:49:21;23.10;;;14.50;;
815;SDS011;25928;51.062;13.752;2023-02-14T06:51:48;22.13;;;16.13;;
815;SDS011;25928;51.062;13.752;2023-02-14T06:54:14;22.63;;;16.60;;
815;SDS011;25928;51.062;13.752;2023-02-14T06:56:40;21.37;;;16.27;;
815;SDS011;25928;51.062;13.752;2023-02-14T06:59:05;24.60;;;15.60;;
815;SDS011;25928;51.062;13.752;2023-02-14T07:01:31;20.00;;;15.00;;
815;SDS011;25928;51.062;13.752;2023-02-14T07:03:57;21.03;;;15.57;;
815;SDS011;25928;51.062;13.752;2023-02-14T07:06:22;20.67;;;14.50;;
815;SDS011;25928;51.062;13.752;2023-02-14T07:08:49;19.83;;;14.33;;
815;SDS011;25928;51.062;13.752;2023-02-14T07:11:15;22.00;;;15.40;;
815;SDS011;25928;51.062;13.752;2023-02-14T07:13:40;21.80;;;14.83;;
815;SDS011;25928;51.062;13.752;2023-02-14T07:16:07;22.33;;;15.30;;
815;SDS011;25928;51.062;13.752;2023-02-14T07:18:33;26.13;;;15.20;;
815;SDS011;25928;51.062;13.752;2023-02-14T07:20:59;22.80;;;15.83;;
815;SDS011;25928;51.062;13.752;2023-02-14T07:23:25;24.63;;;15.50;;
815;SDS011;25928;51.062;13.752;2023-02-14T07:25:50;21.80;;;17.10;;
815;SDS011;25928;51.062;13.752;2023-02-14T07:28:16;26.33;;;17.27;;
815;SDS011;25928;51.062;13.752;2023-02-14T07:30:41;23.27;;;15.90;;
815;SDS011;25928;51.062;13.752;2023-02-14T07:33:07;22.50;;;16.93;;
815;SDS011;25928;51.062;13.752;2023-02-14T07:35:33;26.53;;;18.30;;
815;SDS011;25928;51.062;13.752;2023-02-14T07:37:59;24.97;;;18.00;;
815;SDS011;25928;51.062;13.752;2023-02-14T07:40:25;25.90;;;17.30;;
815;SDS011;25928;51.062;13.752;2023-02-14T07:42:52;25.00;;;18.70;;
815;SDS011;25928;51.062;13.752;2023-02-14T07:45:19;24.17;;;16.70;;
815;SDS011;25928;51.062;13.752;2023-02-14T07:47:52;23.47;;;17.30;;
815;SDS011;25928;51.062;13.752;2023-02-14T07:50:20;27.53;;;17.77;;
815;SDS011;25928;51.062;13.752;2023-02-14T07:52:46;27.67;;;18.93;;
815;SDS011;25928;51.062;13.752;2023-02-14T07:55:12;28.53;;;20.53;;
815;SDS011;25928;51.062;13.752;2023-02-14T07:57:38;24.20;;;16.50;;
815;SDS011;25928;51.062;13.752;2023-02-14T08:00:04;26.13;;;15.70;;
815;SDS011;25928;51.062;13.752;2023-02-14T08:02:31;27.53;;;18.00;;
815;SDS011;25928;51.062;13.752;2023-02-14T08:04:57;23.00;;;16.50;;
815;SDS011;25928;51.062;13.752;2023-02-14T08:07:22;26.00;;;18.63;;
815;SDS011;25928;51.062;13.752;2023-02-14T08:09:48;18.47;;;13.70;;
815;SDS011;25928;51.062;13.752;2023-02-14T08:12:14;20.40;;;14.40;;
815;SDS011;25928;51.062;13.752;2023-02-14T08:14:58;20.70;;;15.40;;
815;SDS011;25928;51.062;13.752;2023-02-14T08:17:43;21.30;;;16.07;;
815;SDS011;25928;51.062;13.752;2023-02-14T08:20:09;23.17;;;16.63;;
815;SDS011;25928;51.062;13.752;2023-02-14T08:22:35;23.63;;;15.13;;
815;SDS011;25928;51.062;13.752;2023-02-14T08:25:01;21.77;;;14.90;;
815;SDS011;25928;51.062;13.752;2023-02-14T08:27:26;21.03;;;16.60;;
815;SDS011;25928;51.062;13.752;2023-02-14T08:29:52;23.37;;;15.47;;
815;SDS011;25928;51.062;13.752;2023-02-14T08:32:17;20.43;;;15.50;;
815;SDS011;25928;51.062;13.752;2023-02-14T08:34:44;21.90;;;14.03;;
815;SDS011;25928;51.062;13.752;2023-02-14T08:37:10;21.87;;;16.30;;
815;SDS011;25928;51.062;13.752;2023-02-14T08:39:37;17.83;;;14.73;;
815;SDS011;25928;51.062;13.752;2023-02-14T08:42:03;22.03;;;15.60;;
815;SDS011;25928;51.062;13.752;2023-02-14T08:44:29;19.50;;;14.93;;
815;SDS011;25928;51.062;13.752;2023-02-14T08:46:55;18.70;;;14.43;;
815;SDS011;25928;51.062;13.752;2023-02-14T08:49:20;20.50;;;14.67;;
815;SDS011;25928;51.062;13.752;2023-02-14T08:51:46;22.43;;;14.33;;
815;SDS011;25928;51.062;13.752;2023-02-14T08:54:12;22.97;;;16.37;;
815;SDS011;25928;51.062;13.752;2023-02-14T08:56:37;18.33;;;13.60;;
815;SDS011;25928;51.062;13.752;2023-02-14T08:59:04;20.80;;;14.43;;
815;SDS011;25928;51.062;13.752;2023-02-14T09:01:30;18.70;;;13.40;;
815;SDS011;25928;51.062;13.752;2023-02-14T09:03:56;16.77;;;12.53;;
815;SDS011;25928;51.062;13.752;2023-02-14T09:06:21;16.00;;;11.63;;
815;SDS011;25928;51.062;13.752;2023-02-14T09:08:47;20.27;;;13.60;;
815;SDS011;25928;51.062;13.752;2023-02-14T09:11:14;18.27;;;13.00;;
815;SDS011;25928;51.062;13.752;2023-02-14T09:13:43;20.20;;;13.93;;
815;SDS011;25928;51.062;13.752;2023-02-14T09:16:09;18.90;;;13.57;;
815;SDS011;25928;51.062;13.752;2023-02-14T09:18:37;20.20;;;13.80;;
815;SDS011;25928;51.062;13.752;2023-02-14T09:21:07;18.47;;;14.40;;
815;SDS011;25928;51.062;13.752;2023-02-14T09:23:59;18.37;;;13.00;;
815;SDS011;25928;51.062;13.752;2023-02-14T09:26:24;23.00;;;15.20;;
815;SDS011;25928;51.062;13.752;2023-02-14T09:28:50;17.77;;;15.60;;
815;SDS011;25928;51.062;13.752;2023-02-14T09:31:17;21.37;;;15.30;;
815;SDS011;25928;51.062;13.752;2023-02-14T09:33:44;17.80;;;14.57;;
815;SDS011;25928;51.062;13.752;2023-02-14T09:36:11;18.90;;;14.07;;
815;SDS011;25928;51.062;13.752;2023-02-14T09:38:36;17.43;;;12.70;;
815;SDS011;25928;51.062;13.752;2023-02-14T09:41:08;17.20;;;12.80;;
815;SDS011;25928;51.062;13.752;2023-02-14T09:43:48;14.80;;;12.47;;
815;SDS011;25928;51.062;13.752;2023-02-14T09:46:19;13.50;;;11.37;;
815;SDS011;25928;51.062;13.752;2023-02-14T09:48:48;17.50;;;12.43;;
815;SDS011;25928;51.062;13.752;2023-02-14T09:51:19;13.10;;;10.50;;
815;SDS011;25928;51.062;13.752;2023-02-14T09:53:51;16.13;;;10.20;;
815;SDS011;25928;51.062;13.752;2023-02-14T09:56:26;17.83;;;12.20;;
815;SDS011;25928;51.062;13.752;2023-02-14T10:04:46;15.17;;;11.30;;
815;SDS011;25928;51.062;13.752;2023-02-14T10:10:35;18.67;;;12.70;;
815;SDS011;25928;51.062;13.752;2023-02-14T10:15:56;17.40;;;14.10;;
815;SDS011;25928;51.062;13.752;2023-02-14T10:18:30;15.70;;;12.53;;
815;SDS011;25928;51.062;13.752;2023-02-14T10:21:21;17.17;;;11.83;;
815;SDS011;25928;51.062;13.752;2023-02-14T10:24:08;13.73;;;11.20;;
815;SDS011;25928;51.062;13.752;2023-02-14T10:26:40;19.20;;;13.13;;
815;SDS011;25928;51.062;13.752;2023-02-14T10:29:10;10.70;;;9.33;;
815;SDS011;25928;51.062;13.752;2023-02-14T10:31:46;13.70;;;11.43;;
815;SDS011;25928;51.062;13.752;2023-02-14T10:34:41;16.50;;;12.90;;
815;SDS011;25928;51.062;13.752;2023-02-14T10:43:00;20.80;;;12.63;;
815;SDS011;25928;51.062;13.752;2023-02-14T10:45:44;15.57;;;12.37;;
815;SDS011;25928;51.062;13.752;2023-02-14T10:48:26;13.93;;;11.10;;
815;SDS011;25928;51.062;13.752;2023-02-14T10:54:02;14.87;;;12.37;;
815;SDS011;25928;51.062;13.752;2023-02-14T10:56:38;15.03;;;11.43;;
815;SDS011;25928;51.062;13.752;2023-02-14T10:59:23;17.10;;;12.90;;
815;SDS011;25928;51.062;13.752;2023-02-14T11:01:53;15.40;;;11.77;;
815;SDS011;25928;51.062;13.752;2023-02-14T11:04:21;17.33;;;13.03;;
815;SDS011;25928;51.062;13.752;2023-02-14T11:06:48;16.33;;;12.07;;
815;SDS011;25928;51.062;13.752;2023-02-14T11:09:15;16.13;;;13.07;;
815;SDS011;25928;51.062;13.752;2023-02-14T11:14:19;20.70;;;13.20;;
815;SDS011;25928;51.062;13.752;2023-02-14T11:16:45;12.73;;;11.00;;
815;SDS011;25928;51.062;13.752;2023-02-14T11:21:55;17.77;;;13.53;;
815;SDS011;25928;51.062;13.752;2023-02-14T11:26:54;18.07;;;12.90;;
815;SDS011;25928;51.062;13.752;2023-02-14T11:31:51;14.73;;;11.97;;
815;SDS011;25928;51.062;13.752;2023-02-14T11:36:55;23.30;;;13.93;;
815;SDS011;25928;51.062;13.752;2023-02-14T11:41:57;19.83;;;13.67;;
815;SDS011;25928;51.062;13.752;2023-02-14T11:44:26;16.27;;;12.60;;
815;SDS011;25928;51.062;13.752;2023-02-14T11:46:54;15.07;;;13.47;;
815;SDS011;25928;51.062;13.752;2023-02-14T11:49:28;14.50;;;12.40;;
815;SDS011;25928;51.062;13.752;2023-02-14T11:51:59;15.60;;;12.30;;
815;SDS011;25928;51.062;13.752;2023-02-14T11:54:36;16.70;;;12.33;;
815;SDS011;25928;51.062;13.752;2023-02-14T11:57:07;13.73;;;11.27;;
815;SDS011;25928;51.062;13.752;2023-02-14T11:59:43;14.13;;;11.57;;
815;SDS011;25928;51.062;13.752;2023-02-14T12:05:16;14.13;;;10.60;;
815;SDS011;25928;51.062;13.752;2023-02-14T12:07:57;14.27;;;10.70;;
815;SDS011;25928;51.062;13.752;2023-02-14T12:10:27;16.30;;;12.50;;
815;SDS011;25928;51.062;13.752;2023-02-14T12:12:55;11.50;;;10.10;;
815;SDS011;25928;51.062;13.752;2023-02-14T12:18:27;14.03;;;11.07;;
815;SDS011;25928;51.062;13.752;2023-02-14T12:20:54;16.90;;;11.03;;
815;SDS011;25928;51.062;13.752;2023-02-14T12:23:41;14.23;;;11.07;;
815;SDS011;25928;51.062;13.752;2023-02-14T12:26:37;14.07;;;10.93;;
815;SDS011;25928;51.062;13.752;2023-02-14T12:31:53;18.30;;;10.73;;
815;SDS011;25928;51.062;13.752;2023-02-14T12:34:23;12.07;;;10.43;;
815;SDS011;25928;51.062;13.752;2023-02-14T12:36:58;17.23;;;11.40;;
815;SDS011;25928;51.062;13.752;2023-02-14T12:39:45;11.63;;;9.80;;
815;SDS011;25928;51.062;13.752;2023-02-14T12:50:32;14.43;;;10.70;;
815;SDS011;25928;51.062;13.752;2023-02-14T12:56:02;13.43;;;11.13;;
815;SDS011;25928;51.062;13.752;2023-02-14T13:11:33;15.33;;;12.13;;
815;SDS011;25928;51.062;13.752;2023-02-14T13:16:56;12.60;;;10.90;;
815;SDS011;25928;51.062;13.752;2023-02-14T13:22:15;16.13;;;10.57;;
815;SDS011;25928;51.062;13.752;2023-02-14T13:24:48;11.67;;;10.47;;
815;SDS011;25928;51.062;13.752;2023-02-14T13:27:21;15.53;;;10.50;;
815;SDS011;25928;51.062;13.752;2023-02-14T13:30:35;18.43;;;11.40;;
815;SDS011;25928;51.062;13.752;2023-02-14T13:32:57;12.60;;;10.40;;
815;SDS011;25928;51.062;13.752;2023-02-14T13:35:31;12.57;;;10.67;;
815;SDS011;25928;51.062;13.752;2023-02-14T13:38:02;12.73;;;10.70;;
815;SDS011;25928;51.062;13.752;2023-02-14T13:40:32;13.87;;;10.17;;
815;SDS011;25928;51.062;13.752;2023-02-14T13:43:00;10.23;;;9.23;;
815;SDS011;25928;51.062;13.752;2023-02-14T13:48:23;12.03;;;10.77;;
815;SDS011;25928;51.062;13.752;2023-02-14T13:53:39;14.73;;;10.93;;
815;SDS011;25928;51.062;13.752;2023-02-14T13:58:48;14.07;;;11.13;;
815;SDS011;25928;51.062;13.752;2023-02-14T14:22:46;13.20;;;9.60;;
815;SDS011;25928;51.062;13.752;2023-02-14T14:28:01;15.10;;;10.43;;
815;SDS011;25928;51.062;13.752;2023-02-14T14:30:34;11.20;;;9.70;;
815;SDS011;25928;51.062;13.752;2023-02-14T14:35:58;14.63;;;11.23;;
815;SDS011;25928;51.062;13.752;2023-02-14T14:38:33;16.17;;;12.33;;
815;SDS011;25928;51.062;13.752;2023-02-14T14:41:09;19.90;;;14.47;;
815;SDS011;25928;51.062;13.752;2023-02-14T14:43:35;21.40;;;15.10;;
815;SDS011;25928;51.062;13.752;2023-02-14T14:46:03;23.10;;;15.90;;
815;SDS011;25928;51.062;13.752;2023-02-14T14:51:02;24.57;;;16.37;;
815;SDS011;25928;51.062;13.752;2023-02-14T14:53:37;24.00;;;16.43;;
815;SDS011;25928;51.062;13.752;2023-02-14T14:56:09;24.07;;;16.20;;
815;SDS011;25928;51.062;13.752;2023-02-14T14:58:44;22.63;;;15.03;;
815;SDS011;25928;51.062;13.752;2023-02-14T15:01:11;18.20;;;15.43;;
815;SDS011;25928;51.062;13.752;2023-02-14T15:03:51;21.90;;;15.70;;
815;SDS011;25928;51.062;13.752;2023-02-14T15:06:20;25.70;;;18.47;;
815;SDS011;25928;51.062;13.752;2023-02-14T15:08:47;24.47;;;17.83;;
815;SDS011;25928;51.062;13.752;2023-02-14T15:11:15;24.20;;;19.30;;
815;SDS011;25928;51.062;13.752;2023-02-14T15:14:06;21.07;;;16.23;;
815;SDS011;25928;51.062;13.752;2023-02-14T15:16:46;20.47;;;16.00;;
815;SDS011;25928;51.062;13.752;2023-02-14T15:19:18;24.50;;;16.60;;
815;SDS011;25928;51.062;13.752;2023-02-14T15:22:13;23.13;;;17.67;;
815;SDS011;25928;51.062;13.752;2023-02-14T15:24:43;21.40;;;16.90;;
815;SDS011;25928;51.062;13.752;2023-02-14T15:27:16;23.07;;;16.90;;
815;SDS011;25928;51.062;13.752;2023-02-14T15:29:54;23.87;;;17.30;;
815;SDS011;25928;51.062;13.752;2023-02-14T15:32:24;24.40;;;17.77;;
815;SDS011;25928;51.062;13.752;2023-02-14T15:34:54;26.13;;;16.40;;
815;SDS011;25928;51.062;13.752;2023-02-14T15:37:21;29.77;;;18.93;;
815;SDS011;25928;51.062;13.752;2023-02-14T15:39:52;23.17;;;18.13;;
815;SDS011;25928;51.062;13.752;2023-02-14T15:48:13;25.60;;;18.60;;
815;SDS011;25928;51.062;13.752;2023-02-14T15:50:46;25.20;;;19.23;;
815;SDS011;25928;51.062;13.752;2023-02-14T15:55:52;22.13;;;18.53;;
815;SDS011;25928;51.062;13.752;2023-02-14T15:58:27;24.70;;;18.27;;
815;SDS011;25928;51.062;13.752;2023-02-14T16:00:56;24.90;;;18.67;;
815;SDS011;25928;51.062;13.752;2023-02-14T16:03:28;29.37;;;19.10;;
815;SDS011;25928;51.062;13.752;2023-02-14T16:06:01;27.50;;;19.37;;
815;SDS011;25928;51.062;13.752;2023-02-14T16:11:03;28.90;;;21.30;;
815;SDS011;25928;51.062;13.752;2023-02-14T16:13:33;31.80;;;20.20;;
815;SDS011;25928;51.062;13.752;2023-02-14T16:16:05;27.87;;;19.40;;
815;SDS011;25928;51.062;13.752;2023-02-14T16:26:43;28.63;;;19.03;;
815;SDS011;25928;51.062;13.752;2023-02-14T16:29:11;23.47;;;17.27;;
815;SDS011;25928;51.062;13.752;2023-02-14T16:31:47;26.87;;;18.87;;
815;SDS011;25928;51.062;13.752;2023-02-14T16:34:16;21.63;;;16.37;;
815;SDS011;25928;51.062;13.752;2023-02-14T16:36:42;25.63;;;18.50;;
815;SDS011;25928;51.062;13.752;2023-02-14T16:39:15;27.53;;;19.37;;
815;SDS011;25928;51.062;13.752;2023-02-14T16:41:43;29.37;;;19.70;;
815;SDS011;25928;51.062;13.752;2023-02-14T16:44:12;29.93;;;20.93;;
815;SDS011;25928;51.062;13.752;2023-02-14T16:46:38;30.50;;;20.33;;
815;SDS011;25928;51.062;13.752;2023-02-14T16:49:04;24.53;;;18.40;;
815;SDS011;25928;51.062;13.752;2023-02-14T16:51:31;24.93;;;18.47;;
815;SDS011;25928;51.062;13.752;2023-02-14T16:53:59;26.73;;;19.57;;
815;SDS011;25928;51.062;13.752;2023-02-14T16:56:32;28.80;;;19.60;;
815;SDS011;25928;51.062;13.752;2023-02-14T16:59:10;29.10;;;19.30;;
815;SDS011;25928;51.062;13.752;2023-02-14T17:01:36;27.67;;;20.27;;
815;SDS011;25928;51.062;13.752;2023-02-14T17:04:01;34.63;;;20.77;;
815;SDS011;25928;51.062;13.752;2023-02-14T17:06:28;28.43;;;21.00;;
815;SDS011;25928;51.062;13.752;2023-02-14T17:08:56;36.57;;;21.80;;
815;SDS011;25928;51.062;13.752;2023-02-14T17:11:25;26.73;;;19.83;;
815;SDS011;25928;51.062;13.752;2023-02-14T17:13:54;28.70;;;19.60;;
815;SDS011;25928;51.062;13.752;2023-02-14T17:16:20;27.27;;;19.90;;
815;SDS011;25928;51.062;13.752;2023-02-14T17:18:46;23.87;;;19.53;;
815;SDS011;25928;51.062;13.752;2023-02-14T17:21:14;25.17;;;19.40;;
815;SDS011;25928;51.062;13.752;2023-02-14T17:23:41;32.10;;;21.00;;
815;SDS011;25928;51.062;13.752;2023-02-14T17:26:06;33.43;;;22.67;;
815;SDS011;25928;51.062;13.752;2023-02-14T17:28:32;31.00;;;23.63;;
815;SDS011;25928;51.062;13.752;2023-02-14T17:30:58;39.83;;;28.10;;
815;SDS011;25928;51.062;13.752;2023-02-14T17:33:24;37.50;;;27.03;;
815;SDS011;25928;51.062;13.752;2023-02-14T17:35:50;35.67;;;26.47;;
815;SDS011;25928;51.062;13.752;2023-02-14T17:38:16;35.80;;;27.03;;
815;SDS011;25928;51.062;13.752;2023-02-14T17:40:42;34.03;;;23.87;;
815;SDS011;25928;51.062;13.752;2023-02-14T17:43:08;29.03;;;20.60;;
815;SDS011;25928;51.062;13.752;2023-02-14T17:45:34;32.10;;;22.83;;
815;SDS011;25928;51.062;13.752;2023-02-14T17:48:00;33.30;;;23.97;;
815;SDS011;25928;51.062;13.752;2023-02-14T17:50:26;32.30;;;23.10;;